Time;durP1;ratioP1;P1;durP2;ratioP2;P2;SDS_P1;SDS_P2;PMS_P1;PMS_P2;Temp;Humidity;BMP_temperature;BMP_pressure;BME280_temperature;BME280_humidity;BME280_pressure;Samples;Min_cycle;Max_cycle;Signal;HPM_P1;HPM_P2
2024/04/18 00:02:10;;;;;;;24.73;14.52;;;205.30;2252.80;;;;;;5448141;26;20056;-72
2024/04/18 00:04:36;;;;;;;10.73;6.80;;;205.20;2252.80;;;;;;5447011;26;20071;-72
2024/04/18 00:07:03;;;;;;;10.85;7.13;;;205.20;2252.80;;;;;;5448513;26;19994;-72
2024/04/18 00:09:29;;;;;;;11.00;9.70;;;205.20;2252.80;;;;;;5446797;26;19991;-72
2024/04/18 00:11:55;;;;;;;8.07;7.05;;;205.20;2252.80;;;;;;5447726;26;19999;-75
2024/04/18 00:14:21;;;;;;;5.45;4.72;;;205.20;2252.80;;;;;;5446515;26;20072;-73
2024/04/18 00:16:47;;;;;;;8.10;4.97;;;205.20;2252.80;;;;;;5447896;26;19995;-73
2024/04/18 00:19:14;;;;;;;6.75;4.30;;;205.20;2252.80;;;;;;5447294;26;19995;-72
2024/04/18 00:21:40;;;;;;;8.38;4.55;;;205.20;2252.80;;;;;;5447866;26;20013;-72
2024/04/18 00:24:06;;;;;;;9.65;5.05;;;205.20;2252.80;;;;;;5446811;26;20449;-72
2024/04/18 00:26:32;;;;;;;9.57;5.50;;;205.20;2252.80;;;;;;5447474;26;20009;-72
2024/04/18 00:28:58;;;;;;;8.80;5.20;;;205.10;2252.80;;;;;;5446323;26;19999;-73
2024/04/18 00:31:24;;;;;;;7.57;4.93;;;205.20;2252.80;;;;;;5447173;26;20030;-77
2024/04/18 00:33:49;;;;;;;5.80;4.97;;;205.20;2252.80;;;;;;5446348;26;20356;-76
2024/04/18 00:36:15;;;;;;;5.65;3.97;;;205.10;2252.80;;;;;;5416455;26;20022;-74
2024/04/18 00:38:41;;;;;;;5.65;3.85;;;205.10;2252.80;;;;;;5446328;26;20010;-75
2024/04/18 00:41:08;;;;;;;5.82;3.85;;;205.00;2252.80;;;;;;5447363;26;20010;-74
2024/04/18 00:43:34;;;;;;;6.60;4.20;;;205.00;2252.80;;;;;;5446167;26;20034;-76
2024/04/18 00:46:01;;;;;;;7.00;5.22;;;205.00;2252.80;;;;;;5447468;26;19999;-72
2024/04/18 00:48:29;;;;;;;6.97;4.93;;;205.00;2252.80;;;;;;5446700;26;20076;-73
2024/04/18 00:50:58;;;;;;;8.00;6.28;;;204.90;2252.80;;;;;;5447520;26;20452;-73
2024/04/18 00:53:25;;;;;;;7.70;4.40;;;204.80;2252.80;;;;;;5424565;26;20006;-72
2024/04/18 00:55:53;;;;;;;7.32;4.40;;;204.90;2252.80;;;;;;5446439;26;20006;-75
2024/04/18 00:58:19;;;;;;;7.57;5.22;;;204.90;2252.80;;;;;;5446549;26;20146;-75
2024/04/18 01:00:49;;;;;;;11.20;4.45;;;205.00;2252.80;;;;;;5445919;26;20457;-71
2024/04/18 01:03:15;;;;;;;6.15;4.20;;;204.90;2252.80;;;;;;5447274;26;20002;-72
2024/04/18 01:05:42;;;;;;;6.65;3.55;;;205.00;2252.80;;;;;;5446069;26;20082;-75
2024/04/18 01:08:08;;;;;;;9.15;5.72;;;204.90;2252.80;;;;;;5447144;26;20003;-73
2024/04/18 01:10:34;;;;;;;6.43;4.25;;;205.00;2252.80;;;;;;5446478;26;20003;-73
2024/04/18 01:13:01;;;;;;;7.90;4.70;;;205.00;2252.80;;;;;;5446560;26;20010;-72
2024/04/18 01:15:27;;;;;;;5.80;4.00;;;205.00;2252.80;;;;;;5446250;26;20002;-73
2024/04/18 01:17:54;;;;;;;5.70;4.30;;;205.10;2252.80;;;;;;5447268;26;20075;-72
2024/04/18 01:20:25;;;;;;;7.70;5.32;;;205.00;2252.80;;;;;;5445514;26;20336;-73
2024/04/18 01:22:51;;;;;;;6.53;4.47;;;205.20;2252.80;;;;;;5446673;26;20073;-73
2024/04/18 01:25:17;;;;;;;9.05;6.30;;;205.20;2252.80;;;;;;5446583;26;20006;-74
2024/04/18 01:27:43;;;;;;;6.93;4.90;;;205.30;2252.80;;;;;;5446795;26;20002;-73
2024/04/18 01:30:09;;;;;;;7.20;5.80;;;205.20;2252.80;;;;;;5445763;26;20673;-73
2024/04/18 01:32:36;;;;;;;13.98;12.75;;;205.30;2252.80;;;;;;5447317;26;20003;-72
2024/04/18 01:35:03;;;;;;;8.82;6.15;;;205.30;2252.80;;;;;;5445782;26;20022;-72
2024/04/18 01:37:29;;;;;;;7.18;4.72;;;205.30;2252.80;;;;;;5445969;26;20003;-72
2024/04/18 01:39:54;;;;;;;7.30;4.95;;;205.20;2252.80;;;;;;5445572;26;20448;-77
2024/04/18 01:42:20;;;;;;;8.27;5.50;;;205.20;2252.80;;;;;;5444382;26;20477;-72
2024/04/18 01:44:46;;;;;;;8.45;5.72;;;205.20;2252.80;;;;;;5445454;26;20017;-72
2024/04/18 01:47:13;;;;;;;8.10;6.00;;;205.10;2252.80;;;;;;5446818;26;20002;-76
2024/04/18 01:49:39;;;;;;;11.18;6.32;;;205.10;2252.80;;;;;;5445582;26;20008;-77
2024/04/18 01:52:08;;;;;;;10.23;6.40;;;205.30;2252.80;;;;;;5446931;26;20071;-75
2024/04/18 01:54:34;;;;;;;9.07;5.93;;;205.20;2252.80;;;;;;5445905;26;20052;-75
2024/04/18 01:57:00;;;;;;;11.48;6.50;;;205.20;2252.80;;;;;;5446913;26;20019;-76
2024/04/18 01:59:26;;;;;;;10.60;7.32;;;205.10;2252.80;;;;;;5445996;26;20018;-76
2024/04/18 02:01:55;;;;;;;10.02;7.15;;;205.00;2252.80;;;;;;5446537;26;20003;-73
2024/04/18 02:04:21;;;;;;;11.13;6.82;;;205.10;2252.80;;;;;;5445183;26;20007;-72
2024/04/18 02:06:51;;;;;;;10.15;8.13;;;205.10;2252.80;;;;;;5446750;26;20083;-73
2024/04/18 02:09:18;;;;;;;10.75;7.10;;;205.00;2252.80;;;;;;5445104;26;20009;-71
2024/04/18 02:11:44;;;;;;;12.60;7.57;;;205.00;2252.80;;;;;;5414641;26;20350;-72
2024/04/18 02:14:13;;;;;;;7.93;6.05;;;205.00;2252.80;;;;;;5444533;26;20007;-72
2024/04/18 02:16:38;;;;;;;13.10;11.55;;;204.90;2252.80;;;;;;5446187;26;20038;-72
2024/04/18 02:19:04;;;;;;;12.07;8.27;;;204.90;2252.80;;;;;;5445065;26;19999;-72
2024/04/18 02:21:30;;;;;;;10.15;6.88;;;204.90;2252.80;;;;;;5445741;26;19999;-77
2024/04/18 02:23:56;;;;;;;12.05;7.60;;;205.00;2252.80;;;;;;5444435;26;20071;-72
2024/04/18 02:26:22;;;;;;;10.55;6.78;;;205.10;2252.80;;;;;;5445348;26;20010;-73
2024/04/18 02:28:47;;;;;;;9.85;7.30;;;205.20;2252.80;;;;;;5412870;26;20008;-72
2024/04/18 02:31:13;;;;;;;10.32;6.90;;;205.20;2252.80;;;;;;5446214;26;20096;-71
2024/04/18 02:33:39;;;;;;;9.68;6.60;;;205.10;2252.80;;;;;;5444484;26;20009;-72
2024/04/18 02:36:05;;;;;;;11.60;7.40;;;205.10;2252.80;;;;;;5445753;26;20317;-72
2024/04/18 02:38:31;;;;;;;12.80;8.73;;;205.10;2252.80;;;;;;5444744;26;19991;-73
2024/04/18 02:41:08;;;;;;;10.00;6.53;;;205.20;2252.80;;;;;;5445684;26;20006;-73
2024/04/18 02:43:34;;;;;;;12.60;8.10;;;205.10;2252.80;;;;;;5412934;26;20366;-73
2024/04/18 02:46:00;;;;;;;10.90;7.32;;;205.00;2252.80;;;;;;5445002;26;20002;-73
2024/04/18 02:48:26;;;;;;;10.02;7.28;;;205.00;2252.80;;;;;;5444155;26;20086;-76
2024/04/18 02:50:52;;;;;;;11.50;7.75;;;204.90;2252.80;;;;;;5445386;26;20003;-73
2024/04/18 02:53:18;;;;;;;11.50;7.30;;;204.80;2252.80;;;;;;5445504;26;19999;-77
2024/04/18 02:55:43;;;;;;;10.93;7.43;;;180.10;2252.80;;;;;;5417632;26;20004;-73
2024/04/18 02:58:09;;;;;;;11.55;7.28;;;180.10;2252.80;;;;;;5414394;26;20014;-73
2024/04/18 03:00:35;;;;;;;10.27;7.38;;;180.10;2252.80;;;;;;5449135;26;19999;-73
2024/04/18 03:03:02;;;;;;;11.32;6.78;;;180.10;2252.80;;;;;;5448392;26;20440;-77
2024/04/18 03:05:27;;;;;;;11.07;7.45;;;180.00;2252.80;;;;;;5449624;26;20369;-76
2024/04/18 03:07:57;;;;;;;13.00;8.35;;;179.90;2252.80;;;;;;5448366;26;19999;-76
2024/04/18 03:10:24;;;;;;;10.23;7.70;;;179.80;2252.80;;;;;;5417789;26;19998;-76
2024/04/18 03:12:56;;;;;;;9.32;6.22;;;179.90;2252.80;;;;;;5416258;26;20360;-73
2024/04/18 03:15:22;;;;;;;12.27;8.27;;;180.00;2252.80;;;;;;5448256;26;20009;-76
2024/04/18 03:17:54;;;;;;;10.60;7.07;;;179.90;2252.80;;;;;;5423311;26;19991;-72
2024/04/18 03:20:20;;;;;;;10.55;7.38;;;179.90;2252.80;;;;;;5447475;26;20075;-76
2024/04/18 03:22:46;;;;;;;10.85;7.28;;;179.80;2252.80;;;;;;5448944;26;20378;-73
2024/04/18 03:25:12;;;;;;;11.13;7.78;;;179.70;2252.80;;;;;;5447311;26;20010;-73
2024/04/18 03:27:38;;;;;;;12.38;7.85;;;179.70;2252.80;;;;;;5448053;26;19999;-72
2024/04/18 03:30:04;;;;;;;12.65;8.57;;;179.70;2252.80;;;;;;5447547;26;20340;-73
2024/04/18 03:32:31;;;;;;;10.95;6.95;;;179.70;2252.80;;;;;;5416437;26;20032;-76
2024/04/18 03:34:57;;;;;;;11.43;8.13;;;179.80;2252.80;;;;;;5447855;26;19994;-75
2024/04/18 03:37:23;;;;;;;10.23;7.38;;;180.10;2252.80;;;;;;5448665;26;20349;-74
2024/04/18 03:39:49;;;;;;;10.32;7.25;;;179.70;2252.80;;;;;;5447206;26;20061;-74
2024/04/18 03:42:14;;;;;;;13.35;8.18;;;179.80;2252.80;;;;;;5448599;26;20458;-74
2024/04/18 03:44:41;;;;;;;12.02;7.57;;;179.70;2252.80;;;;;;5447138;26;20513;-76
2024/04/18 03:47:07;;;;;;;11.80;7.72;;;179.70;2252.80;;;;;;5448727;26;20027;-73
2024/04/18 03:49:33;;;;;;;15.05;8.18;;;179.70;2252.80;;;;;;5447497;26;20006;-73
2024/04/18 03:51:58;;;;;;;12.50;7.78;;;179.60;2252.80;;;;;;5416659;26;20469;-73
2024/04/18 03:54:24;;;;;;;11.32;7.63;;;179.50;2252.80;;;;;;5415811;26;20576;-72
2024/04/18 03:56:50;;;;;;;11.32;7.68;;;179.60;2252.80;;;;;;5447816;26;20014;-73
2024/04/18 03:59:16;;;;;;;14.00;7.82;;;179.60;2252.80;;;;;;5415511;26;19995;-74
2024/04/18 04:01:42;;;;;;;12.50;8.68;;;179.70;2252.80;;;;;;5447874;26;20067;-73
2024/04/18 04:04:07;;;;;;;14.70;7.95;;;179.70;2252.80;;;;;;5446187;26;20010;-73
2024/04/18 04:06:33;;;;;;;13.52;7.88;;;179.70;2252.80;;;;;;5447856;26;20002;-73
2024/04/18 04:08:59;;;;;;;10.95;7.53;;;179.70;2252.80;;;;;;5446905;26;20504;-73
2024/04/18 04:11:25;;;;;;;11.60;8.43;;;179.80;2252.80;;;;;;5448025;26;19995;-73
2024/04/18 04:13:51;;;;;;;11.32;8.65;;;179.70;2252.80;;;;;;5446660;26;20671;-74
2024/04/18 04:16:20;;;;;;;14.40;9.13;;;179.80;2252.80;;;;;;5448245;26;20615;-73
2024/04/18 04:18:50;;;;;;;11.95;8.55;;;179.90;2252.80;;;;;;5446886;26;20539;-74
2024/04/18 04:21:19;;;;;;;11.30;8.38;;;179.50;2252.80;;;;;;5416572;26;20006;-73
2024/04/18 04:23:45;;;;;;;13.13;8.20;;;179.90;2252.80;;;;;;5447134;26;20002;-75
2024/04/18 04:26:11;;;;;;;10.68;7.97;;;179.90;2252.80;;;;;;5447295;26;19999;-72
2024/04/18 04:28:37;;;;;;;10.52;6.88;;;179.90;2252.80;;;;;;5446500;26;20009;-72
2024/04/18 04:31:03;;;;;;;10.77;7.93;;;179.90;2252.80;;;;;;5448027;26;20010;-73
2024/04/18 04:33:34;;;;;;;11.07;7.60;;;180.00;2252.80;;;;;;5415064;26;20011;-73
2024/04/18 04:36:00;;;;;;;12.55;7.80;;;205.00;2252.80;;;;;;5447721;26;20460;-73
2024/04/18 04:38:26;;;;;;;11.45;8.13;;;205.70;2252.80;;;;;;5446761;26;20019;-76
2024/04/18 04:40:52;;;;;;;13.05;8.43;;;230.90;2252.80;;;;;;5415058;26;19995;-72
2024/04/18 04:43:18;;;;;;;11.90;9.68;;;205.70;2252.80;;;;;;5446114;26;20005;-71
2024/04/18 04:45:44;;;;;;;12.32;7.32;;;205.60;2252.80;;;;;;5448231;26;20430;-75
2024/04/18 04:48:09;;;;;;;11.95;7.35;;;205.40;2252.80;;;;;;5446815;26;20003;-76
2024/04/18 04:50:40;;;;;;;8.90;6.78;;;205.40;2252.80;;;;;;5447697;26;20002;-77
2024/04/18 04:53:07;;;;;;;10.60;6.82;;;230.50;2252.80;;;;;;5446737;26;20011;-74
2024/04/18 04:55:33;;;;;;;11.73;7.85;;;256.70;2252.80;;;;;;5447841;26;20071;-74
2024/04/18 04:57:59;;;;;;;10.05;7.10;;;307.90;2304.00;;;;;;5413119;26;20003;-75
2024/04/18 05:00:24;;;;;;;9.25;7.15;;;333.70;2329.60;;;;;;5447459;26;20007;-76
2024/04/18 05:02:50;;;;;;;8.50;6.60;;;358.50;2329.60;;;;;;5413516;26;20682;-73
2024/04/18 05:05:16;;;;;;;9.48;7.05;;;333.60;2329.60;;;;;;5447583;26;19998;-73
2024/04/18 05:07:42;;;;;;;11.25;8.65;;;358.70;2329.60;;;;;;5445911;26;19999;-73
2024/04/18 05:10:08;;;;;;;8.95;7.22;;;333.70;2329.60;;;;;;5446905;26;19999;-73
2024/04/18 05:12:33;;;;;;;9.38;7.07;;;359.10;2329.60;;;;;;5445936;26;19995;-72
2024/04/18 05:14:59;;;;;;;7.25;5.85;;;384.60;2227.20;;;;;;5415021;26;19999;-73
2024/04/18 05:17:25;;;;;;;8.38;6.47;;;358.70;2329.60;;;;;;5446028;26;20316;-72
2024/04/18 05:19:51;;;;;;;9.00;7.30;;;333.30;2329.60;;;;;;5447085;26;19994;-73
2024/04/18 05:22:17;;;;;;;8.65;6.60;;;359.20;2329.60;;;;;;5445875;26;20459;-73
2024/04/18 05:24:43;;;;;;;8.52;7.20;;;384.60;2227.20;;;;;;5447113;26;20010;-73
2024/04/18 05:27:08;;;;;;;9.45;7.20;;;409.70;2150.40;;;;;;5445780;26;20006;-73
2024/04/18 05:32:19;;;;;;;9.40;7.75;;;435.80;1996.80;;;;;;5446266;26;20063;-75
2024/04/18 05:34:45;;;;;;;7.97;7.18;;;461.50;1894.40;;;;;;5446917;26;20368;-73
2024/04/18 05:37:10;;;;;;;9.25;7.10;;;486.80;1843.20;;;;;;5445731;26;20003;-77
2024/04/18 05:39:36;;;;;;;8.70;7.53;;;487.30;1766.40;;;;;;5446864;26;20003;-72
2024/04/18 05:42:02;;;;;;;10.13;7.07;;;512.00;1766.40;;;;;;5446040;26;20051;-74
2024/04/18 05:44:29;;;;;;;15.02;11.77;;;512.10;1740.80;;;;;;5446266;26;20075;-75
2024/04/18 05:46:55;;;;;;;53.22;27.23;;;487.00;1740.80;;;;;;5446530;26;20010;-74
2024/04/18 05:49:22;;;;;;;11.95;8.70;;;487.30;1715.20;;;;;;5445434;26;20007;-74
2024/04/18 05:51:49;;;;;;;22.65;19.20;;;512.70;1689.60;;;;;;5422583;26;19999;-73
2024/04/18 05:54:15;;;;;;;10.40;9.27;;;512.70;1689.60;;;;;;5445709;26;19999;-73
2024/04/18 05:56:40;;;;;;;26.60;24.52;;;512.90;1664.00;;;;;;5422009;26;20325;-74
2024/04/18 05:59:06;;;;;;;15.70;14.35;;;537.90;1638.40;;;;;;5444943;26;20010;-74
2024/04/18 06:01:32;;;;;;;12.80;10.32;;;538.30;1638.40;;;;;;5422608;26;19998;-77
2024/04/18 06:03:58;;;;;;;8.30;7.45;;;538.20;1612.80;;;;;;5414083;26;20014;-73
2024/04/18 06:06:24;;;;;;;9.15;8.35;;;538.00;1664.00;;;;;;5446460;26;20035;-73
2024/04/18 06:08:53;;;;;;;12.48;11.20;;;538.30;1587.20;;;;;;5444761;26;19999;-73
2024/04/18 06:11:35;;;;;;;8.50;7.70;;;563.60;1612.80;;;;;;5445112;26;19999;-73
2024/04/18 06:14:04;;;;;;;9.15;7.65;;;564.10;1561.60;;;;;;5414491;26;20003;-77
2024/04/18 06:16:35;;;;;;;8.10;7.30;;;589.30;1536.00;;;;;;5414609;26;19999;-76
2024/04/18 06:19:01;;;;;;;7.72;6.93;;;615.00;1459.20;;;;;;5444694;26;20040;-76
2024/04/18 06:21:27;;;;;;;12.93;11.25;;;665.90;1382.40;;;;;;5446310;26;20003;-76
2024/04/18 06:23:53;;;;;;;12.15;8.48;;;665.90;1382.40;;;;;;5413386;26;20027;-77
2024/04/18 06:26:18;;;;;;;8.73;7.93;;;666.50;1331.20;;;;;;5444938;26;19999;-78
2024/04/18 06:28:45;;;;;;;7.75;6.88;;;640.70;1356.80;;;;;;5446612;26;20022;-77
2024/04/18 06:31:11;;;;;;;8.52;7.70;;;640.60;1356.80;;;;;;5449164;26;20079;-77
2024/04/18 06:33:37;;;;;;;13.43;12.18;;;666.20;1331.20;;;;;;5448779;26;19999;-77
2024/04/18 06:36:03;;;;;;;9.75;8.70;;;666.50;1331.20;;;;;;5449046;26;20071;-76
2024/04/18 06:38:29;;;;;;;7.40;6.70;;;691.60;1305.60;;;;;;5448814;26;19998;-77
2024/04/18 06:40:55;;;;;;;7.88;7.13;;;716.80;1305.60;;;;;;5449018;26;20044;-77
2024/04/18 06:43:21;;;;;;;7.10;6.47;;;716.90;1280.00;;;;;;5447109;26;19998;-76
2024/04/18 06:45:46;;;;;;;7.22;6.50;;;692.10;1254.40;;;;;;5416246;26;20489;-76
2024/04/18 06:48:12;;;;;;;6.32;5.60;;;717.00;1254.40;;;;;;5447501;26;19998;-77
2024/04/18 06:50:38;;;;;;;8.18;7.38;;;717.10;1228.80;;;;;;5444145;26;20002;-77
2024/04/18 06:53:05;;;;;;;8.50;7.70;;;717.60;1228.80;;;;;;5447351;26;19999;-77
2024/04/18 06:55:34;;;;;;;8.80;8.10;;;717.50;1228.80;;;;;;5448887;26;19994;-77
2024/04/18 06:58:00;;;;;;;9.18;8.25;;;742.50;1228.80;;;;;;5447283;26;19995;-77
2024/04/18 07:00:27;;;;;;;10.90;9.90;;;742.80;1228.80;;;;;;5448357;26;20002;-76
2024/04/18 07:02:53;;;;;;;13.30;9.60;;;768.00;1203.20;;;;;;5447380;26;19995;-75
2024/04/18 07:05:20;;;;;;;12.65;11.52;;;;;;;;;;5448613;26;20459;-77
2024/04/18 07:07:47;;;;;;;9.82;9.00;;;768.10;1177.60;;;;;;5447727;26;19995;-78
2024/04/18 07:10:14;;;;;;;8.85;7.97;;;742.60;1203.20;;;;;;5449039;26;19999;-77
2024/04/18 07:12:40;;;;;;;10.88;9.90;;;742.60;1203.20;;;;;;5447042;26;20071;-76
2024/04/18 07:15:06;;;;;;;8.77;7.88;;;768.60;1177.60;;;;;;5416593;26;20010;-77
2024/04/18 07:17:32;;;;;;;10.85;9.75;;;743.20;1177.60;;;;;;5447666;26;19994;-77
2024/04/18 07:19:58;;;;;;;8.52;7.78;;;742.50;1254.40;;;;;;5412804;26;19998;-76
2024/04/18 07:22:23;;;;;;;8.38;7.55;;;768.90;1152.00;;;;;;5445162;26;20003;-77
2024/04/18 07:24:49;;;;;;;10.05;9.00;;;819.30;1126.40;;;;;;5444477;26;19991;-78
2024/04/18 07:27:16;;;;;;;10.43;8.40;;;768.60;1152.00;;;;;;5447206;26;20014;-76
2024/04/18 07:29:41;;;;;;;8.48;7.63;;;794.40;1126.40;;;;;;5447158;26;20006;-76
2024/04/18 07:32:07;;;;;;;8.48;7.78;;;819.50;1100.80;;;;;;5444737;26;20332;-76
2024/04/18 07:34:34;;;;;;;11.25;10.23;;;794.50;1100.80;;;;;;5448541;26;20451;-76
2024/04/18 07:37:00;;;;;;;10.88;9.77;;;743.10;1152.00;;;;;;5447346;26;19994;-76
2024/04/18 07:39:27;;;;;;;8.65;7.78;;;768.40;1126.40;;;;;;5448466;26;20005;-78
2024/04/18 07:41:52;;;;;;;13.32;12.07;;;793.60;1126.40;;;;;;5447587;26;20333;-76
2024/04/18 07:44:19;;;;;;;8.25;7.45;;;743.10;1152.00;;;;;;5448176;26;19998;-76
2024/04/18 07:46:47;;;;;;;8.07;7.40;;;793.70;1126.40;;;;;;5447893;26;20003;-75
2024/04/18 07:49:13;;;;;;;7.80;7.10;;;717.70;1177.60;;;;;;5448105;26;19995;-75
2024/04/18 07:51:40;;;;;;;9.25;8.43;;;768.00;1126.40;;;;;;5415815;26;20014;-78
2024/04/18 07:54:06;;;;;;;8.02;7.32;;;768.90;1100.80;;;;;;5448122;26;20843;-76
2024/04/18 07:56:32;;;;;;;7.88;7.22;;;819.30;1075.20;;;;;;5447094;26;20013;-77
2024/04/18 07:58:57;;;;;;;7.38;6.68;;;794.30;1100.80;;;;;;5447662;26;20321;-76
2024/04/18 08:01:23;;;;;;;7.95;7.15;;;716.80;1177.60;;;;;;5415718;26;19995;-77
2024/04/18 08:03:49;;;;;;;7.65;6.95;;;742.50;1152.00;;;;;;5447517;26;20010;-76
2024/04/18 08:06:15;;;;;;;22.20;7.85;;;742.70;1152.00;;;;;;5447433;26;20050;-77
2024/04/18 08:08:41;;;;;;;25.05;22.63;;;793.70;1126.40;;;;;;5447633;26;20068;-75
2024/04/18 08:11:09;;;;;;;9.38;7.35;;;794.10;1100.80;;;;;;5446926;26;20034;-77
2024/04/18 08:13:38;;;;;;;8.45;7.65;;;793.90;1126.40;;;;;;5416174;26;20013;-77
2024/04/18 08:16:05;;;;;;;8.73;7.93;;;793.80;1100.80;;;;;;5446020;26;19998;-75
2024/04/18 08:18:31;;;;;;;8.75;7.95;;;794.20;1100.80;;;;;;5446785;26;20002;-78
2024/04/18 08:20:56;;;;;;;10.88;9.23;;;819.60;1049.60;;;;;;5447959;26;20063;-76
2024/04/18 08:23:23;;;;;;;7.97;7.25;;;717.70;1126.40;;;;;;5445604;26;19999;-78
2024/04/18 08:25:49;;;;;;;7.68;6.88;;;742.40;1177.60;;;;;;5447588;26;20073;-77
2024/04/18 08:28:16;;;;;;;7.97;6.45;;;691.20;1203.20;;;;;;5446481;26;20446;-76
2024/04/18 08:30:43;;;;;;;8.35;7.47;;;691.40;1203.20;;;;;;5447028;26;20014;-76
2024/04/18 08:33:09;;;;;;;9.40;8.50;;;691.30;1203.20;;;;;;5407162;26;20000;-75
2024/04/18 08:35:35;;;;;;;7.70;7.03;;;691.20;1177.60;;;;;;5447067;26;20433;-75
2024/04/18 08:38:03;;;;;;;13.65;9.55;;;640.00;1254.40;;;;;;5446174;26;20009;-75
2024/04/18 08:40:28;;;;;;;9.20;8.30;;;589.20;1356.80;;;;;;5447009;26;20071;-76
2024/04/18 08:42:54;;;;;;;9.55;7.55;;;588.80;1382.40;;;;;;5445938;26;19995;-75
2024/04/18 08:45:25;;;;;;;7.55;6.50;;;538.50;1433.60;;;;;;5446654;26;20440;-76
2024/04/18 08:47:56;;;;;;;7.68;6.28;;;537.70;1459.20;;;;;;5445280;26;20011;-76
2024/04/18 08:50:22;;;;;;;9.68;5.80;;;512.40;1484.80;;;;;;5446347;26;20006;-77
2024/04/18 08:52:51;;;;;;;8.20;5.57;;;487.10;1510.40;;;;;;5446491;26;20437;-76
2024/04/18 08:55:17;;;;;;;10.02;6.82;;;486.90;1510.40;;;;;;5448038;26;20074;-76
2024/04/18 08:58:10;;;;;;;7.88;6.85;;;486.80;1536.00;;;;;;5446753;26;20010;-75
2024/04/18 09:00:43;;;;;;;10.00;5.85;;;461.40;1587.20;;;;;;5448066;26;19999;-76
2024/04/18 09:03:10;;;;;;;;;;;461.00;1587.20;;;;;;5447991;26;20014;-77
2024/04/18 09:05:37;;;;;;;8.88;6.50;;;436.00;1612.80;;;;;;5448414;26;19928;-76
2024/04/18 09:08:04;;;;;;;8.07;5.93;;;435.80;1638.40;;;;;;5423907;26;20468;-76
2024/04/18 09:10:30;;;;;;;14.10;9.52;;;435.90;1664.00;;;;;;5446900;26;20006;-77
2024/04/18 09:12:56;;;;;;;14.50;6.63;;;435.70;1689.60;;;;;;5446484;26;20440;-77
2024/04/18 09:15:22;;;;;;;10.27;6.05;;;435.30;1740.80;;;;;;5447221;26;20006;-76
2024/04/18 09:18:18;;;;;;;10.35;7.68;;;435.60;1715.20;;;;;;5446090;26;19994;-77
2024/04/18 09:20:44;;;;;;;31.27;18.48;;;435.60;1689.60;;;;;;5269621;27;19994;-76
2024/04/18 09:23:10;;;;;;;12.13;8.25;;;435.80;1664.00;;;;;;5288416;27;20001;-76
2024/04/18 09:25:36;;;;;;;6.38;5.15;;;461.00;1715.20;;;;;;5303560;27;20011;-76
2024/04/18 09:28:02;;;;;;;12.55;8.65;;;461.60;1664.00;;;;;;5273714;27;20001;-76
2024/04/18 09:30:28;;;;;;;10.80;5.68;;;461.00;1664.00;;;;;;5302802;27;20012;-75
2024/04/18 09:32:55;;;;;;;7.40;4.85;;;435.70;1638.40;;;;;;5268219;27;20055;-75
2024/04/18 09:35:23;;;;;;;9.75;7.55;;;435.60;1664.00;;;;;;5268751;27;20137;-76
2024/04/18 09:37:50;;;;;;;17.73;10.45;;;435.70;1664.00;;;;;;5289941;27;20034;-76
2024/04/18 09:40:20;;;;;;;54.55;27.88;;;436.00;1664.00;;;;;;5303558;27;20013;-77
2024/04/18 09:42:59;;;;;;;12.23;6.28;;;460.80;1664.00;;;;;;5303017;27;20040;-76
2024/04/18 09:45:35;;;;;;;11.20;5.90;;;435.80;1612.80;;;;;;5302084;27;20089;-76
2024/04/18 09:48:02;;;;;;;44.72;25.60;;;435.30;1664.00;;;;;;5302694;27;20001;-77
2024/04/18 09:50:28;;;;;;;18.70;13.05;;;435.50;1689.60;;;;;;5302878;27;19998;-76
2024/04/18 09:52:55;;;;;;;10.68;6.35;;;410.50;1689.60;;;;;;5303131;27;19997;-76
2024/04/18 09:55:21;;;;;;;12.98;10.48;;;410.40;1689.60;;;;;;5301670;27;20450;-77
2024/04/18 09:57:48;;;;;;;28.35;18.20;;;435.20;1689.60;;;;;;5412793;26;20561;-76
2024/04/18 10:00:16;;;;;;;6.18;4.55;;;435.60;1715.20;;;;;;5445085;26;20010;-76
2024/04/18 10:02:44;;;;;;;8.43;5.75;;;435.60;1689.60;;;;;;5446140;26;20006;-77
2024/04/18 10:05:10;;;;;;;73.63;49.13;;;435.20;1689.60;;;;;;5448934;26;20010;-76
2024/04/18 10:07:36;;;;;;;18.58;10.75;;;435.50;1664.00;;;;;;5449625;26;19991;-76
2024/04/18 10:10:03;;;;;;;31.27;20.48;;;435.30;1664.00;;;;;;5449273;26;20023;-77
2024/04/18 10:12:34;;;;;;;13.75;9.80;;;435.20;1689.60;;;;;;5417165;26;19999;-76
2024/04/18 10:15:00;;;;;;;73.88;44.33;;;435.20;1689.60;;;;;;5448491;26;19999;-77
2024/04/18 10:17:31;;;;;;;8.23;5.10;;;435.20;1689.60;;;;;;5449535;26;20010;-76
2024/04/18 10:20:05;;;;;;;10.57;6.10;;;435.40;1689.60;;;;;;5417642;26;20014;-77
2024/04/18 10:22:34;;;;;;;93.57;49.25;;;435.80;1638.40;;;;;;5449255;26;19999;-75
2024/04/18 10:25:02;;;;;;;5.25;3.20;;;436.10;1612.80;;;;;;5448654;26;19998;-76
2024/04/18 10:27:28;;;;;;;17.27;12.00;;;435.90;1612.80;;;;;;5417546;26;20078;-76
2024/04/18 10:29:58;;;;;;;35.35;20.08;;;435.80;1612.80;;;;;;5448682;26;20396;-77
2024/04/18 10:32:28;;;;;;;85.68;46.50;;;435.90;1561.60;;;;;;5418036;26;20429;-75
2024/04/18 10:34:54;;;;;;;70.95;42.45;;;435.80;1587.20;;;;;;5417304;26;20082;-76
2024/04/18 10:37:23;;;;;;;4.18;3.13;;;435.80;1587.20;;;;;;5449557;26;20026;-76
2024/04/18 10:39:49;;;;;;;15.93;9.45;;;435.40;1612.80;;;;;;5448473;26;20328;-76
2024/04/18 10:42:20;;;;;;;12.80;6.32;;;435.40;1612.80;;;;;;5449920;26;20341;-75
2024/04/18 10:44:47;;;;;;;54.25;31.75;;;435.60;1612.80;;;;;;5448733;26;20003;-76
2024/04/18 10:47:13;;;;;;;26.77;17.98;;;435.60;1612.80;;;;;;5449962;26;20350;-75
2024/04/18 10:49:39;;;;;;;87.43;63.20;;;435.20;1612.80;;;;;;5448760;26;20017;-75
2024/04/18 10:52:10;;;;;;;5.35;4.55;;;410.40;1638.40;;;;;;5450386;26;20014;-76
2024/04/18 10:54:36;;;;;;;10.05;5.13;;;410.50;1638.40;;;;;;5449058;26;20006;-76
2024/04/18 10:57:02;;;;;;;32.78;17.08;;;435.20;1638.40;;;;;;5449422;26;20448;-76
2024/04/18 10:59:28;;;;;;;20.95;13.50;;;435.20;1612.80;;;;;;5449433;26;20022;-77
2024/04/18 11:02:04;;;;;;;23.58;15.48;;;435.40;1612.80;;;;;;5451167;26;20002;-77
2024/04/18 11:04:30;;;;;;;22.85;15.10;;;435.70;1587.20;;;;;;5456511;26;19994;-76
2024/04/18 11:06:56;;;;;;;61.28;41.15;;;435.80;1587.20;;;;;;5458746;26;20009;-76
2024/04/18 11:09:22;;;;;;;35.08;24.05;;;436.00;1612.80;;;;;;5458285;26;19995;-76
2024/04/18 11:11:49;;;;;;;5.75;4.00;;;435.60;1536.00;;;;;;5458146;26;20641;-76
2024/04/18 11:14:17;;;;;;;25.33;16.38;;;435.30;1484.80;;;;;;5458800;26;19999;-76
2024/04/18 11:16:44;;;;;;;16.02;9.75;;;435.30;1510.40;;;;;;5451180;26;20013;-77
2024/04/18 11:19:10;;;;;;;17.55;11.23;;;410.50;1561.60;;;;;;5450082;26;20003;-76
2024/04/18 11:21:36;;;;;;;5.60;4.25;;;410.50;1612.80;;;;;;5449283;26;20468;-77
2024/04/18 11:24:02;;;;;;;21.05;11.57;;;410.50;1638.40;;;;;;5450023;26;20406;-77
2024/04/18 11:26:28;;;;;;;104.00;62.03;;;435.30;1638.40;;;;;;5417054;26;20064;-76
2024/04/18 11:28:56;;;;;;;34.72;21.13;;;410.20;1638.40;;;;;;5449340;26;20010;-77
2024/04/18 11:31:23;;;;;;;52.38;39.20;;;410.30;1664.00;;;;;;5447886;26;20002;-76
2024/04/18 11:33:48;;;;;;;55.83;41.78;;;410.10;1689.60;;;;;;5415017;26;19995;-76
2024/04/18 11:36:15;;;;;;;28.48;19.63;;;410.40;1689.60;;;;;;5447781;26;19995;-76
2024/04/18 11:38:41;;;;;;;121.10;86.53;;;410.50;1689.60;;;;;;5447552;26;19999;-75
2024/04/18 11:41:08;;;;;;;13.93;10.00;;;410.50;1664.00;;;;;;5414977;26;20327;-76
2024/04/18 11:43:34;;;;;;;237.85;172.63;;;435.30;1664.00;;;;;;5448310;26;20034;-76
2024/04/18 11:46:00;;;;;;;234.80;165.48;;;435.20;1664.00;;;;;;5447498;26;19998;-76
2024/04/18 11:48:26;;;;;;;113.30;81.18;;;435.50;1638.40;;;;;;5448452;26;20693;-76
2024/04/18 11:50:52;;;;;;;23.85;16.95;;;435.60;1664.00;;;;;;5415181;26;20329;-75
2024/04/18 11:53:18;;;;;;;19.98;12.80;;;435.50;1664.00;;;;;;5447662;26;19999;-77
2024/04/18 11:55:44;;;;;;;19.63;12.80;;;435.20;1612.80;;;;;;5447938;26;20008;-76
2024/04/18 11:58:10;;;;;;;22.65;15.35;;;410.50;1638.40;;;;;;5447773;26;19994;-75
2024/04/18 12:00:36;;;;;;;79.35;53.28;;;410.50;1638.40;;;;;;5415053;26;19995;-76
2024/04/18 12:03:03;;;;;;;48.60;30.15;;;410.50;1664.00;;;;;;5447610;26;20010;-76
2024/04/18 12:05:29;;;;;;;24.17;15.82;;;410.20;1664.00;;;;;;5446780;26;20002;-76
2024/04/18 12:07:54;;;;;;;11.85;6.97;;;410.20;1638.40;;;;;;5447189;26;20443;-77
2024/04/18 12:10:20;;;;;;;44.05;30.05;;;410.30;1664.00;;;;;;5446432;26;20010;-76
2024/04/18 12:12:46;;;;;;;40.13;25.27;;;410.50;1638.40;;;;;;5447018;26;20048;-74